Time;durP1;ratioP1;P1;durP2;ratioP2;P2;SDS_P1;SDS_P2;PMS_P1;PMS_P2;Temp;Humidity;BMP_temperature;BMP_pressure;BME280_temperature;BME280_humidity;BME280_pressure;Samples;Min_cycle;Max_cycle;Signal;HPM_P1;HPM_P2
2022/06/30 00:01:40;;;;;;;13.15;9.50;;;;;;;20.50;72.28;100718.94;5022272;28;20054;-85
2022/06/30 00:04:05;;;;;;;15.18;9.10;;;;;;;20.35;72.58;100708.41;5054991;28;20442;-84
2022/06/30 00:06:31;;;;;;;17.30;9.23;;;;;;;20.44;72.04;100715.25;5039715;28;20044;-86
2022/06/30 00:08:57;;;;;;;13.15;8.88;;;;;;;20.43;72.29;100729.94;5036990;28;20128;-86
2022/06/30 00:11:23;;;;;;;20.20;12.80;;;;;;;20.41;71.71;100719.22;5038297;28;20048;-85
2022/06/30 00:13:48;;;;;;;15.88;9.02;;;;;;;20.44;71.57;100723.44;5038728;28;20158;-83
2022/06/30 00:16:14;;;;;;;12.30;8.52;;;;;;;20.48;71.32;100712.88;5037696;28;20083;-83
2022/06/30 00:18:40;;;;;;;14.75;8.30;;;;;;;20.50;70.87;100713.50;5021567;28;20032;-83
2022/06/30 00:21:05;;;;;;;11.60;8.63;;;;;;;20.52;70.99;100717.66;5016239;28;20091;-85
2022/06/30 00:23:31;;;;;;;17.17;8.95;;;;;;;20.64;70.77;100717.78;5055080;28;20089;-84
2022/06/30 00:25:57;;;;;;;13.68;9.20;;;;;;;20.47;71.11;100712.06;5020552;28;20048;-85
2022/06/30 00:28:22;;;;;;;14.30;9.13;;;;;;;20.49;71.53;100718.13;5029617;28;20052;-84
2022/06/30 00:30:49;;;;;;;15.20;9.32;;;;;;;20.48;71.61;100707.41;5037517;28;20049;-84
2022/06/30 00:33:14;;;;;;;17.52;9.30;;;;;;;20.47;71.47;100716.69;5054756;28;20036;-84
2022/06/30 00:35:40;;;;;;;10.52;7.72;;;;;;;20.55;68.42;100713.66;5021717;28;20080;-85
2022/06/30 00:38:06;;;;;;;12.43;6.25;;;;;;;20.52;66.45;100708.66;5020357;28;20064;-85
2022/06/30 00:40:39;;;;;;;14.98;6.05;;;;;;;20.50;64.24;100708.03;5038272;28;20033;-84
2022/06/30 00:43:04;;;;;;;7.97;5.50;;;;;;;20.56;64.59;100718.09;5019081;28;20059;-84
2022/06/30 00:45:30;;;;;;;7.95;5.28;;;;;;;20.54;63.38;100709.25;5034258;28;20481;-85
2022/06/30 00:47:56;;;;;;;9.27;5.30;;;;;;;20.42;63.16;100711.91;5021309;28;20036;-85
2022/06/30 00:50:22;;;;;;;5.82;4.13;;;;;;;20.33;61.20;100716.81;5021865;28;20068;-84
2022/06/30 00:52:49;;;;;;;5.38;3.30;;;;;;;20.37;58.37;100718.03;5022051;28;20154;-84
2022/06/30 00:55:15;;;;;;;9.38;3.28;;;;;;;20.26;57.27;100699.66;5036930;28;20045;-84
2022/06/30 00:57:41;;;;;;;6.07;2.92;;;;;;;20.39;56.92;100715.06;5028623;28;20036;-85
2022/06/30 01:00:08;;;;;;;6.07;3.25;;;;;;;20.36;56.91;100710.06;5047628;28;20405;-84
2022/06/30 01:02:33;;;;;;;4.95;3.30;;;;;;;20.35;56.80;100720.16;5054178;28;20036;-84
2022/06/30 01:05:00;;;;;;;7.63;3.20;;;;;;;20.19;56.94;100687.94;5045542;28;20396;-84
2022/06/30 01:07:27;;;;;;;5.97;3.30;;;;;;;20.28;57.06;100708.44;5026673;28;20335;-84
2022/06/30 01:12:42;;;;;;;7.05;3.30;;;;;;;20.18;56.32;100719.00;5036529;28;20099;-84
2022/06/30 01:15:08;;;;;;;6.95;3.42;;;;;;;20.16;54.95;100710.25;5016094;28;20082;-83
2022/06/30 01:17:34;;;;;;;6.88;3.10;;;;;;;20.16;54.95;100718.44;5018064;28;20120;-83
2022/06/30 01:20:00;;;;;;;5.85;3.08;;;;;;;20.18;54.83;100724.47;5036682;28;20028;-84
2022/06/30 01:22:25;;;;;;;6.75;2.92;;;;;;;20.14;55.37;100717.81;5038829;28;20043;-85
2022/06/30 01:24:51;;;;;;;8.70;3.10;;;;;;;20.14;55.30;100721.38;5028726;28;20033;-84
2022/06/30 01:27:17;;;;;;;8.80;3.38;;;;;;;20.04;55.49;100707.38;5031021;28;20127;-84
2022/06/30 01:29:43;;;;;;;6.43;3.78;;;;;;;20.14;56.39;100717.81;5036022;28;20031;-85
2022/06/30 01:32:08;;;;;;;8.63;3.83;;;;;;;20.19;56.94;100718.81;5034417;28;20052;-84
2022/06/30 01:34:34;;;;;;;11.88;4.10;;;;;;;20.10;57.68;100702.94;5048480;28;20032;-83
2022/06/30 01:37:00;;;;;;;8.75;5.05;;;;;;;20.08;59.37;100721.41;5028238;28;20080;-83
2022/06/30 01:39:25;;;;;;;10.40;4.70;;;;;;;20.13;59.16;100727.03;5020140;28;20132;-84
2022/06/30 01:41:51;;;;;;;11.88;4.75;;;;;;;20.06;59.07;100707.16;5050294;28;20082;-85
2022/06/30 01:44:17;;;;;;;11.48;4.80;;;;;;;20.17;59.60;100728.28;5053613;28;20536;-83
2022/06/30 01:46:49;;;;;;;10.27;5.80;;;;;;;20.10;60.35;100719.31;5053524;28;20116;-84
2022/06/30 01:49:15;;;;;;;12.23;5.55;;;;;;;20.17;60.15;100728.28;5028259;28;20037;-85
2022/06/30 01:51:40;;;;;;;9.27;5.32;;;;;;;20.09;60.75;100715.75;5017196;28;20066;-85
2022/06/30 01:54:06;;;;;;;12.85;5.10;;;;;;;20.03;60.29;100717.47;5016430;28;20042;-85
2022/06/30 01:56:32;;;;;;;13.95;5.50;;;;;;;20.11;61.08;100723.69;5050391;28;20196;-84
2022/06/30 01:58:57;;;;;;;9.43;5.28;;;;;;;20.13;61.23;100722.41;5053709;28;20060;-84
2022/06/30 02:01:23;;;;;;;9.07;5.10;;;;;;;20.06;61.26;100729.00;5052546;28;20047;-84
2022/06/30 02:03:49;;;;;;;11.45;5.80;;;;;;;20.04;62.45;100718.28;5018315;28;20115;-84
2022/06/30 02:06:14;;;;;;;13.55;6.65;;;;;;;19.96;63.03;100713.94;5019453;28;20068;-85
2022/06/30 02:08:40;;;;;;;14.10;6.85;;;;;;;19.97;63.70;100722.97;5034815;28;20037;-85
2022/06/30 02:11:05;;;;;;;11.63;6.57;;;;;;;19.85;63.21;100711.09;5035665;28;20115;-85
2022/06/30 02:13:31;;;;;;;10.40;6.60;;;;;;;19.88;63.32;100708.78;5036178;28;20353;-84
2022/06/30 02:15:57;;;;;;;10.40;5.50;;;;;;;19.95;62.56;100714.19;5014561;28;20036;-84
2022/06/30 02:18:22;;;;;;;14.07;5.75;;;;;;;19.97;61.71;100721.09;5053458;28;20037;-84
2022/06/30 02:20:48;;;;;;;;;;;;;;;20.03;61.01;100722.91;5036406;28;20059;-84
2022/06/30 02:23:13;;;;;;;11.68;5.53;;;;;;;19.92;61.22;100718.16;5028067;28;20364;-85
2022/06/30 02:25:39;;;;;;;11.52;5.97;;;;;;;19.96;61.74;100727.59;5038383;28;20075;-84
2022/06/30 02:28:05;;;;;;;12.00;7.50;;;;;;;19.81;64.86;100724.34;5019891;28;20123;-85
2022/06/30 02:30:31;;;;;;;;;;;;;;;19.81;67.15;100733.38;5012928;28;20043;-84
2022/06/30 02:32:56;;;;;;;23.83;9.73;;;;;;;19.69;68.75;100742.47;5037886;28;20383;-84
2022/06/30 02:35:22;;;;;;;;;;;;;;;19.80;68.29;100739.03;5039445;28;20047;-84
2022/06/30 02:37:48;;;;;;;20.63;9.75;;;;;;;19.74;69.05;100746.22;5039535;28;19908;-83
2022/06/30 02:40:13;;;;;;;17.02;10.15;;;;;;;19.60;70.06;100745.44;5020485;28;20063;-83
2022/06/30 02:42:39;;;;;;;22.42;10.60;;;;;;;19.53;70.59;100728.28;5033948;28;20408;-85
2022/06/30 02:45:05;;;;;;;25.95;10.73;;;;;;;19.72;70.15;100742.88;5038278;28;20045;-83
2022/06/30 02:47:31;;;;;;;20.67;10.18;;;;;;;19.78;69.81;100741.16;5037118;28;20393;-84
2022/06/30 02:49:57;;;;;;;21.65;10.18;;;;;;;19.72;69.95;100717.50;5052395;28;20036;-85
2022/06/30 02:52:22;;;;;;;;;;;;;;;19.80;70.31;100744.50;5048262;28;20480;-83
2022/06/30 02:54:48;;;;;;;18.10;10.27;;;;;;;19.71;70.23;100718.53;5045557;28;19920;-85
2022/06/30 02:57:13;;;;;;;17.17;10.68;;;;;;;19.80;70.03;100730.84;5040586;28;20117;-85
2022/06/30 02:59:39;;;;;;;23.80;11.20;;;;;;;19.92;70.25;100737.28;5038701;28;20044;-85
2022/06/30 03:02:05;;;;;;;21.00;10.90;;;;;;;19.94;70.37;100735.16;5019293;28;20508;-84
2022/06/30 03:04:30;;;;;;;20.65;11.18;;;;;;;19.88;69.78;100719.69;5029124;28;20515;-85
2022/06/30 03:06:56;;;;;;;21.08;10.18;;;;;;;20.01;69.81;100722.28;5038519;28;20484;-84
2022/06/30 03:09:23;;;;;;;23.35;10.95;;;;;;;19.82;70.21;100720.56;5007606;28;20083;-84
2022/06/30 03:11:49;;;;;;;20.75;10.25;;;;;;;19.91;69.71;100726.59;5040501;28;20048;-84
2022/06/30 03:14:14;;;;;;;;;;;;;;;19.92;69.33;100731.81;5058470;28;20044;-84
2022/06/30 03:16:40;;;;;;;20.70;10.63;;;;;;;19.86;69.41;100742.78;5038088;28;20011;-84
2022/06/30 03:19:05;;;;;;;17.30;10.73;;;;;;;19.71;68.99;100707.63;5039144;28;20496;-86
2022/06/30 03:21:31;;;;;;;21.48;10.68;;;;;;;19.84;68.93;100728.53;5023758;28;20073;-84
2022/06/30 03:23:56;;;;;;;;;;;;;;;19.73;69.01;100730.91;5035764;28;20044;-85
2022/06/30 03:26:23;;;;;;;18.08;10.82;;;;;;;19.87;68.50;100720.72;5052382;28;19959;-85
2022/06/30 03:28:49;;;;;;;20.85;10.25;;;;;;;19.85;68.05;100717.38;5019866;28;20139;-84
2022/06/30 03:31:14;;;;;;;;;;;;;;;19.83;67.99;100727.72;5034439;28;20440;-83
2022/06/30 03:33:40;;;;;;;19.15;10.60;;;;;;;19.96;67.63;100722.13;5055590;28;19965;-85
2022/06/30 03:36:05;;;;;;;24.75;10.55;;;;;;;20.01;67.54;100708.66;5056358;28;20432;-85
2022/06/30 03:38:31;;;;;;;24.02;9.93;;;;;;;20.03;67.17;100703.81;5039364;28;20052;-84
2022/06/30 03:40:57;;;;;;;16.98;9.80;;;;;;;20.06;66.96;100704.44;5055514;28;20045;-83
2022/06/30 03:43:22;;;;;;;18.58;10.32;;;;;;;20.18;66.91;100711.69;5052918;28;20480;-83
2022/06/30 03:45:48;;;;;;;23.25;10.15;;;;;;;20.36;66.62;100727.25;5055486;28;20123;-85
2022/06/30 03:48:14;;;;;;;29.55;17.80;;;;;;;20.38;66.24;100732.50;5055599;28;20492;-85
2022/06/30 03:50:39;;;;;;;20.08;11.50;;;;;;;20.41;66.37;100732.88;5035717;28;20064;-85
2022/06/30 03:53:05;;;;;;;20.27;10.55;;;;;;;20.47;65.81;100727.59;5037432;28;20065;-85
2022/06/30 03:55:33;;;;;;;23.63;10.40;;;;;;;20.61;65.28;100735.47;5036891;28;20036;-84
2022/06/30 03:57:59;;;;;;;22.05;10.40;;;;;;;20.62;64.84;100728.09;5022753;28;20147;-84
2022/06/30 04:00:24;;;;;;;19.95;9.82;;;;;;;20.73;64.46;100735.56;5018844;28;20059;-82
2022/06/30 04:02:50;;;;;;;21.65;9.60;;;;;;;20.79;64.61;100731.94;5038430;28;20060;-84
2022/06/30 04:05:16;;;;;;;14.52;9.70;;;;;;;20.76;63.42;100729.63;5054599;28;20082;-84
2022/06/30 04:07:42;;;;;;;21.20;9.52;;;;;;;21.00;62.13;100733.38;5030933;28;20033;-84
2022/06/30 04:10:09;;;;;;;18.38;10.02;;;;;;;21.00;61.04;100721.59;5031747;28;20040;-85
2022/06/30 04:12:35;;;;;;;20.60;10.68;;;;;;;21.39;60.20;100742.13;5072442;28;20035;-85
2022/06/30 04:15:00;;;;;;;18.00;11.10;;;;;;;21.53;59.18;100725.59;5037550;28;20068;-85
2022/06/30 04:17:26;;;;;;;20.08;10.48;;;;;;;21.88;58.25;100731.16;5038574;28;20131;-84
2022/06/30 04:19:52;;;;;;;22.92;10.57;;;;;;;22.11;57.13;100733.94;5021718;28;20364;-84
2022/06/30 04:22:17;;;;;;;14.48;9.05;;;;;;;22.25;56.14;100728.28;5034306;28;20098;-84
2022/06/30 04:24:43;;;;;;;21.63;9.40;;;;;;;22.53;55.07;100725.69;5021039;28;20080;-85
2022/06/30 04:27:09;;;;;;;20.83;9.90;;;;;;;22.80;53.88;100733.38;5037759;28;20033;-83
2022/06/30 04:29:34;;;;;;;19.05;12.48;;;;;;;23.03;52.65;100729.81;5022852;28;20037;-83
2022/06/30 04:34:44;;;;;;;27.00;16.90;;;;;;;23.56;50.42;100727.88;5061275;28;20130;-84
2022/06/30 04:37:09;;;;;;;28.30;16.70;;;;;;;23.71;49.66;100730.88;5019464;28;20108;-83
2022/06/30 04:39:35;;;;;;;24.25;15.60;;;;;;;23.97;49.76;100739.59;5020601;28;20036;-85
2022/06/30 04:42:01;;;;;;;23.65;15.80;;;;;;;24.13;49.15;100733.28;5029830;28;20071;-84
2022/06/30 04:44:26;;;;;;;21.17;13.75;;;;;;;24.57;48.34;100738.97;5018725;28;20508;-85
2022/06/30 04:46:52;;;;;;;20.33;10.73;;;;;;;24.88;47.32;100744.88;5037236;28;20058;-86
2022/06/30 04:49:18;;;;;;;19.92;10.20;;;;;;;25.00;47.03;100731.84;5018126;28;20417;-84
2022/06/30 04:51:43;;;;;;;15.88;9.20;;;;;;;25.44;45.75;100747.56;5022119;28;20408;-85
2022/06/30 04:54:09;;;;;;;21.27;8.05;;;;;;;25.73;44.50;100744.53;5041621;28;20044;-85
2022/06/30 04:56:35;;;;;;;19.40;7.45;;;;;;;25.94;44.10;100742.84;5035494;28;20131;-87
2022/06/30 04:59:01;;;;;;;20.85;7.78;;;;;;;25.94;44.50;100735.41;5024600;28;20566;-85
2022/06/30 05:01:26;;;;;;;15.50;7.82;;;;;;;26.01;44.39;100746.22;5036982;28;20528;-86
2022/06/30 05:03:52;;;;;;;17.15;7.25;;;;;;;26.10;44.83;100750.16;5033912;28;20163;-87
2022/06/30 05:06:18;;;;;;;25.80;7.20;;;;;;;26.32;44.14;100742.66;5015771;28;20461;-85
2022/06/30 05:08:43;;;;;;;27.88;8.15;;;;;;;26.44;44.06;100749.91;5035799;28;20090;-85
2022/06/30 05:11:09;;;;;;;22.20;8.80;;;;;;;26.64;43.75;100746.47;5038681;28;20047;-85
2022/06/30 05:13:35;;;;;;;23.95;8.93;;;;;;;26.40;43.55;100741.31;5021758;28;20073;-85
2022/06/30 05:16:02;;;;;;;15.98;8.90;;;;;;;26.55;43.63;100748.91;5037727;28;20091;-83
2022/06/30 05:18:28;;;;;;;19.27;8.52;;;;;;;26.87;42.90;100759.84;5038139;28;20060;-84
2022/06/30 05:20:54;;;;;;;18.48;8.90;;;;;;;27.08;42.65;100758.03;5054245;28;20094;-84
2022/06/30 05:23:20;;;;;;;18.23;7.93;;;;;;;27.23;42.05;100748.19;5038720;28;20044;-86
2022/06/30 05:28:29;;;;;;;19.53;8.07;;;;;;;27.47;41.44;100759.59;5038406;28;20087;-86
2022/06/30 05:30:56;;;;;;;15.38;7.50;;;;;;;27.54;41.31;100761.00;5020703;28;20483;-85
2022/06/30 05:33:22;;;;;;;26.00;8.07;;;;;;;27.94;40.64;100770.50;5016991;28;20028;-85
2022/06/30 05:35:48;;;;;;;21.30;8.13;;;;;;;28.03;40.14;100762.50;5028219;28;20062;-87
2022/06/30 05:38:15;;;;;;;19.10;8.65;;;;;;;28.22;39.86;100762.78;5020287;28;20117;-84
2022/06/30 05:40:41;;;;;;;19.88;8.32;;;;;;;28.42;39.09;100776.59;5036693;28;20029;-85
2022/06/30 05:43:08;;;;;;;16.52;8.07;;;;;;;28.45;39.44;100766.06;5023259;28;20039;-84
2022/06/30 05:45:33;;;;;;;18.80;7.80;;;;;;;28.48;39.00;100776.63;5040806;28;20032;-86
2022/06/30 05:47:59;;;;;;;19.40;7.32;;;;;;;28.58;38.68;100769.13;5036753;28;20043;-84
2022/06/30 05:50:24;;;;;;;21.40;7.90;;;;;;;28.72;37.97;100763.84;5016880;28;20051;-84
2022/06/30 05:52:51;;;;;;;16.33;7.90;;;;;;;28.95;37.84;100775.44;5026864;28;20133;-85
2022/06/30 05:55:17;;;;;;;23.75;8.25;;;;;;;28.95;37.68;100780.97;5021338;28;21096;-85
2022/06/30 05:58:01;;;;;;;10.38;6.75;;;;;;;29.22;37.42;100791.69;5033793;28;20057;-85
2022/06/30 06:00:28;;;;;;;14.38;6.82;;;;;;;29.39;36.83;100791.38;5034730;28;20094;-85
2022/06/30 06:02:54;;;;;;;12.35;6.72;;;;;;;29.32;37.36;100788.06;5016488;28;20029;-85
2022/06/30 06:05:19;;;;;;;12.68;6.90;;;;;;;29.32;36.83;100774.22;5032247;28;20082;-85
2022/06/30 06:07:45;;;;;;;12.35;7.00;;;;;;;29.37;36.79;100776.97;5053625;28;20029;-85
2022/06/30 06:10:13;;;;;;;11.98;5.20;;;;;;;29.35;36.95;100790.25;5035422;28;20368;-85
2022/06/30 06:12:38;;;;;;;8.77;5.07;;;;;;;29.35;37.17;100785.53;5005316;28;20094;-84
2022/06/30 06:15:04;;;;;;;14.15;4.95;;;;;;;29.36;37.72;100772.53;5012434;28;20447;-85
2022/06/30 06:17:31;;;;;;;9.25;4.28;;;;;;;29.21;37.42;100790.88;5052570;28;20043;-85
2022/06/30 06:19:57;;;;;;;10.35;4.00;;;;;;;29.63;37.09;100780.44;5036047;28;20101;-85
2022/06/30 06:22:23;;;;;;;7.25;4.07;;;;;;;29.50;37.75;100798.50;5016743;28;20424;-85
2022/06/30 06:24:49;;;;;;;15.18;4.65;;;;;;;29.61;37.54;100786.25;5018979;28;20113;-85
2022/06/30 06:27:14;;;;;;;9.75;4.40;;;;;;;29.57;36.99;100782.41;5016371;28;20025;-85
2022/06/30 06:29:40;;;;;;;7.20;4.13;;;;;;;29.54;37.13;100796.00;5036710;28;20048;-85
2022/06/30 06:32:06;;;;;;;9.20;4.70;;;;;;;29.40;37.13;100788.28;5026440;28;20034;-85
2022/06/30 06:34:32;;;;;;;12.55;4.35;;;;;;;29.57;37.62;100787.09;5018897;28;20036;-86
2022/06/30 06:36:57;;;;;;;18.20;4.80;;;;;;;29.77;37.41;100783.44;5071230;28;20030;-84
2022/06/30 06:39:23;;;;;;;14.88;4.80;;;;;;;30.03;36.97;100776.59;5052895;28;20032;-84
2022/06/30 06:41:49;;;;;;;6.50;4.30;;;;;;;30.15;36.73;100784.53;5034820;28;20044;-85
2022/06/30 06:44:15;;;;;;;12.73;4.32;;;;;;;30.35;36.30;100769.72;5038097;28;20123;-84
2022/06/30 06:46:40;;;;;;;9.27;4.68;;;;;;;30.35;36.68;100780.81;5037345;28;20056;-85
2022/06/30 06:49:09;;;;;;;9.82;4.40;;;;;;;30.37;36.47;100761.94;5038342;28;20032;-85
2022/06/30 06:51:35;;;;;;;11.43;4.38;;;;;;;30.48;36.74;100752.41;5051775;28;20039;-85
2022/06/30 06:54:01;;;;;;;10.02;4.35;;;;;;;30.61;36.83;100766.72;5035559;28;20492;-85
2022/06/30 06:56:27;;;;;;;11.25;4.55;;;;;;;30.56;36.52;100770.34;5020903;28;20099;-85
2022/06/30 06:58:53;;;;;;;10.50;4.80;;;;;;;30.36;37.22;100765.81;5035567;28;20214;-84
2022/06/30 07:01:18;;;;;;;15.02;4.60;;;;;;;30.24;37.62;100768.94;5035349;28;20127;-84
2022/06/30 07:03:44;;;;;;;15.10;4.43;;;;;;;30.63;36.92;100781.13;5019448;28;20443;-85
2022/06/30 07:06:09;;;;;;;12.02;4.10;;;;;;;30.79;36.11;100774.28;5031867;28;20036;-84
2022/06/30 07:08:35;;;;;;;10.85;4.03;;;;;;;30.91;36.19;100769.19;5048212;28;20488;-86
2022/06/30 07:11:03;;;;;;;7.60;4.15;;;;;;;30.84;36.05;100767.88;5052794;28;20041;-84
2022/06/30 07:13:29;;;;;;;10.15;3.70;;;;;;;30.91;35.70;100774.72;5017976;28;20029;-86
2022/06/30 07:15:54;;;;;;;10.57;3.80;;;;;;;31.20;34.74;100782.16;5034653;28;20033;-84
2022/06/30 07:18:20;;;;;;;6.35;2.90;;;;;;;31.25;34.09;100784.06;5015735;28;20541;-85
2022/06/30 07:20:46;;;;;;;7.70;3.25;;;;;;;31.12;34.33;100788.38;5020302;28;20037;-85
2022/06/30 07:23:12;;;;;;;7.38;2.88;;;;;;;31.10;34.20;100780.34;5033288;28;20087;-86
2022/06/30 07:25:37;;;;;;;7.15;3.10;;;;;;;30.97;34.62;100769.13;5026574;28;20436;-83
2022/06/30 07:28:03;;;;;;;7.97;3.50;;;;;;;30.80;34.73;100775.09;5031726;28;20037;-85
2022/06/30 07:30:29;;;;;;;8.90;2.83;;;;;;;30.95;34.36;100788.84;5034867;28;20086;-84
2022/06/30 07:32:55;;;;;;;5.88;2.60;;;;;;;31.13;33.86;100788.06;5008729;28;20552;-85
2022/06/30 07:35:20;;;;;;;6.50;2.08;;;;;;;30.70;33.00;100771.31;5020802;28;20033;-85
2022/06/30 07:37:46;;;;;;;6.10;2.92;;;;;;;30.86;34.32;100791.44;5018039;28;20448;-83
2022/06/30 07:40:13;;;;;;;6.28;2.58;;;;;;;30.76;34.83;100791.50;5022864;28;20047;-84
2022/06/30 07:42:39;;;;;;;6.75;2.97;;;;;;;31.12;34.70;100793.94;5039490;28;20067;-84
2022/06/30 07:45:06;;;;;;;11.32;2.70;;;;;;;31.20;35.29;100784.13;5022884;28;20033;-86
2022/06/30 07:47:31;;;;;;;5.20;2.60;;;;;;;31.34;34.69;100777.53;5020195;28;20025;-85
2022/06/30 07:49:57;;;;;;;6.32;2.80;;;;;;;31.10;35.49;100785.91;5018802;28;20489;-85
2022/06/30 07:52:23;;;;;;;5.38;2.50;;;;;;;31.32;34.69;100771.44;5024222;28;20043;-84
2022/06/30 07:54:50;;;;;;;6.32;2.30;;;;;;;30.88;34.48;100755.91;5055776;28;20125;-86
2022/06/30 07:57:19;;;;;;;11.85;2.88;;;;;;;30.65;35.64;100762.22;5056332;28;20088;-85
2022/06/30 07:59:45;;;;;;;8.65;2.58;;;;;;;30.55;34.86;100768.69;5040159;28;20036;-84
2022/06/30 08:02:11;;;;;;;6.85;2.17;;;;;;;30.51;34.41;100775.97;5038130;28;20491;-85
2022/06/30 08:04:37;;;;;;;7.22;2.47;;;;;;;30.40;35.46;100764.13;5038565;28;20024;-85
2022/06/30 08:07:03;;;;;;;10.13;2.60;;;;;;;30.73;35.43;100769.09;5027669;28;20064;-84
2022/06/30 08:09:30;;;;;;;8.32;2.58;;;;;;;30.97;35.56;100774.66;5009995;28;20040;-84
2022/06/30 08:11:56;;;;;;;5.97;2.63;;;;;;;30.87;36.00;100776.44;5037909;28;20051;-83
2022/06/30 08:14:22;;;;;;;7.85;2.60;;;;;;;31.43;35.00;100765.81;5019356;28;20037;-84
2022/06/30 08:16:48;;;;;;;7.60;2.70;;;;;;;31.55;34.82;100752.28;5037741;28;20047;-85
2022/06/30 08:19:14;;;;;;;9.63;2.40;;;;;;;32.13;33.59;100774.22;5037756;28;20033;-86
2022/06/30 08:21:39;;;;;;;6.63;2.35;;;;;;;31.67;33.85;100772.13;5038374;28;20068;-85
2022/06/30 08:24:08;;;;;;;10.23;2.60;;;;;;;31.38;34.60;100761.13;5037979;28;20116;-87
2022/06/30 08:26:34;;;;;;;6.28;2.40;;;;;;;31.28;34.78;100781.53;5022349;28;20043;-84
2022/06/30 08:28:59;;;;;;;7.68;2.40;;;;;;;31.74;33.86;100769.78;5021798;28;20048;-83
2022/06/30 08:31:25;;;;;;;4.85;2.05;;;;;;;32.09;32.99;100770.41;5037673;28;20111;-86
2022/06/30 08:33:52;;;;;;;4.93;2.70;;;;;;;32.82;32.11;100778.34;5038102;28;20185;-85
2022/06/30 08:36:18;;;;;;;6.22;2.40;;;;;;;33.04;31.78;100783.19;5021464;28;20043;-85
2022/06/30 08:38:43;;;;;;;6.38;2.55;;;;;;;32.86;32.67;100780.19;5053923;28;20044;-85
2022/06/30 08:43:53;;;;;;;6.32;2.20;;;;;;;32.86;31.97;100785.75;5041508;28;20030;-84
2022/06/30 08:46:19;;;;;;;4.43;2.28;;;;;;;32.46;33.78;100781.75;5025486;28;20036;-85
2022/06/30 08:48:45;;;;;;;6.57;2.25;;;;;;;33.24;31.76;100780.03;5021007;28;20253;-85
2022/06/30 08:51:12;;;;;;;4.55;2.40;;;;;;;33.82;31.45;100770.94;5034176;28;20127;-85
2022/06/30 08:53:40;;;;;;;11.57;2.60;;;;;;;34.00;30.68;100783.09;5054753;28;20373;-83
2022/06/30 08:56:06;;;;;;;6.40;2.47;;;;;;;34.20;30.48;100778.16;5034211;28;20420;-86
2022/06/30 08:58:34;;;;;;;6.60;2.40;;;;;;;34.27;30.30;100772.97;5037794;28;20028;-85
2022/06/30 09:01:00;;;;;;;7.93;2.22;;;;;;;33.74;31.13;100793.16;5033562;28;20028;-84
2022/06/30 09:03:25;;;;;;;8.00;2.40;;;;;;;33.47;32.28;100783.72;5037419;28;20048;-85
2022/06/30 09:05:51;;;;;;;8.68;2.50;;;;;;;33.71;31.73;100760.34;5049884;28;20056;-85
2022/06/30 09:08:17;;;;;;;6.15;2.42;;;;;;;33.57;30.49;100771.53;5038136;28;20043;-85
2022/06/30 09:10:50;;;;;;;5.18;2.05;;;;;;;33.27;31.30;100771.06;5037328;28;20448;-84
2022/06/30 09:13:16;;;;;;;7.07;2.10;;;;;;;33.81;31.34;100772.09;5055065;28;20029;-85
2022/06/30 09:15:44;;;;;;;8.30;2.20;;;;;;;34.23;30.84;100772.78;5035747;28;20452;-85
2022/06/30 09:18:22;;;;;;;8.88;2.28;;;;;;;34.30;30.56;100763.13;5037869;28;20032;-85
2022/06/30 09:20:47;;;;;;;5.72;2.20;;;;;;;34.96;29.13;100772.53;5015306;28;20485;-84
2022/06/30 09:23:24;;;;;;;9.23;2.08;;;;;;;35.35;28.42;100761.66;5034210;28;20059;-85
2022/06/30 09:25:51;;;;;;;7.63;1.85;;;;;;;35.66;27.43;100775.53;5013226;28;20048;-84
2022/06/30 09:28:42;;;;;;;6.15;2.08;;;;;;;35.61;27.53;100770.09;5053796;28;20032;-86
2022/06/30 09:31:12;;;;;;;9.73;2.10;;;;;;;35.50;27.21;100769.59;5077750;28;20037;-84
2022/06/30 09:33:41;;;;;;;6.68;1.90;;;;;;;36.44;25.72;100772.72;5060790;28;20036;-86
2022/06/30 09:36:20;;;;;;;9.27;2.20;;;;;;;37.42;24.46;100778.44;5046025;28;20036;-84
2022/06/30 09:39:08;;;;;;;5.00;1.90;;;;;;;37.16;24.31;100764.56;5061926;28;20056;-84
2022/06/30 09:41:35;;;;;;;10.57;1.90;;;;;;;38.37;23.33;100759.97;5026605;28;20036;-84
2022/06/30 09:44:08;;;;;;;4.45;1.98;;;;;;;38.99;22.59;100758.13;5036519;28;20040;-84
2022/06/30 09:46:36;;;;;;;6.35;1.90;;;;;;;39.43;22.01;100768.75;5051295;28;20149;-85
2022/06/30 09:49:03;;;;;;;5.15;2.03;;;;;;;38.37;23.08;100764.75;5037443;28;20032;-87
2022/06/30 09:51:34;;;;;;;6.38;2.13;;;;;;;38.35;23.32;100758.69;5039922;28;20060;-85
2022/06/30 09:54:09;;;;;;;5.90;2.17;;;;;;;39.75;22.16;100749.22;5037201;28;20464;-85
2022/06/30 09:56:34;;;;;;;5.10;1.98;;;;;;;39.47;22.41;100762.06;5037426;28;20051;-86
2022/06/30 09:59:00;;;;;;;9.88;2.42;;;;;;;38.76;23.40;100756.91;5037744;28;20024;-84
2022/06/30 10:01:31;;;;;;;7.13;2.20;;;;;;;38.71;23.21;100757.97;5017105;28;20043;-85
2022/06/30 10:03:59;;;;;;;8.65;2.80;;;;;;;38.91;23.65;100761.00;5018091;28;20507;-84
2022/06/30 10:06:25;;;;;;;6.90;2.42;;;;;;;39.35;23.12;100775.31;5045956;28;20473;-85
2022/06/30 10:08:52;;;;;;;9.65;2.50;;;;;;;39.59;22.51;100741.53;5037321;28;20036;-85
2022/06/30 10:11:18;;;;;;;5.57;2.22;;;;;;;39.62;22.90;100748.47;5039024;28;20040;-83
2022/06/30 10:13:43;;;;;;;7.43;2.15;;;;;;;39.29;22.92;100748.59;5021154;28;20110;-84
2022/06/30 10:16:09;;;;;;;6.03;2.00;;;;;;;40.04;22.29;100756.50;5054197;28;20033;-84
2022/06/30 10:18:39;;;;;;;4.45;2.20;;;;;;;38.75;22.80;100750.50;5027549;28;20032;-84
2022/06/30 10:21:05;;;;;;;6.05;2.17;;;;;;;38.24;24.09;100761.13;5035769;28;20041;-85
2022/06/30 10:23:30;;;;;;;13.27;2.20;;;;;;;38.84;23.62;100751.19;5032747;28;20087;-85
2022/06/30 10:25:56;;;;;;;5.68;2.20;;;;;;;38.08;24.31;100762.94;5039326;28;20161;-85
2022/06/30 10:28:23;;;;;;;6.80;1.92;;;;;;;37.28;25.12;100753.44;5015938;28;20040;-84
2022/06/30 10:31:17;;;;;;;9.13;2.10;;;;;;;37.06;25.71;100764.91;5061698;28;20036;-83
2022/06/30 10:34:19;;;;;;;11.75;2.38;;;;;;;37.09;25.77;100751.09;5070462;28;20051;-84
2022/06/30 10:37:05;;;;;;;7.47;2.67;;;;;;;37.38;25.90;100750.22;5032600;28;20036;-84
2022/06/30 10:40:08;;;;;;;7.82;2.22;;;;;;;37.22;26.24;100759.59;5016278;28;20029;-85
2022/06/30 10:42:50;;;;;;;7.90;2.50;;;;;;;35.75;27.86;100744.78;5043748;28;20075;-85
2022/06/30 10:45:31;;;;;;;6.32;2.20;;;;;;;35.73;27.97;100745.13;5034267;28;20410;-85
2022/06/30 10:47:57;;;;;;;5.18;1.90;;;;;;;35.18;28.95;100754.88;5049365;28;20033;-84
2022/06/30 10:50:50;;;;;;;6.03;2.20;;;;;;;34.23;30.60;100728.16;5050024;28;20404;-84
2022/06/30 10:53:41;;;;;;;11.07;3.05;;;;;;;34.64;29.79;100738.22;5061282;28;20033;-84
2022/06/30 10:56:07;;;;;;;8.13;2.42;;;;;;;34.13;30.99;100736.75;5069158;28;20037;-85
2022/06/30 10:58:33;;;;;;;10.75;2.67;;;;;;;34.69;30.57;100731.69;5035705;28;20072;-85
2022/06/30 11:01:03;;;;;;;8.05;2.35;;;;;;;33.88;30.69;100726.22;5035850;28;20548;-84
2022/06/30 11:03:34;;;;;;;9.27;2.28;;;;;;;33.33;32.49;100736.38;5051464;28;20121;-85
2022/06/30 11:06:01;;;;;;;8.10;2.05;;;;;;;33.30;32.66;100738.97;5046213;28;20086;-85
2022/06/30 11:08:39;;;;;;;25.80;3.83;;;;;;;33.66;32.52;100740.97;5071019;28;20043;-84
2022/06/30 11:11:28;;;;;;;15.25;2.60;;;;;;;33.20;32.64;100735.25;5064089;28;20473;-85
2022/06/30 11:14:03;;;;;;;8.90;2.20;;;;;;;32.45;33.61;100718.88;5032326;28;20051;-85
2022/06/30 11:16:31;;;;;;;15.70;2.50;;;;;;;32.72;33.04;100727.28;5073682;28;20044;-85
2022/06/30 11:18:57;;;;;;;8.40;2.10;;;;;;;32.76;32.58;100733.91;5019818;28;20476;-85
2022/06/30 11:21:23;;;;;;;4.20;1.90;;;;;;;32.69;32.97;100732.66;5037710;28;20039;-84
2022/06/30 11:23:53;;;;;;;8.43;2.10;;;;;;;32.30;33.53;100720.81;5039972;28;20036;-85
2022/06/30 11:29:05;;;;;;;6.95;2.13;;;;;;;31.45;35.01;100719.13;5047986;28;20416;-85
2022/06/30 11:31:32;;;;;;;9.65;2.47;;;;;;;31.96;34.20;100719.19;5016721;28;20075;-84
2022/06/30 11:34:00;;;;;;;5.13;2.20;;;;;;;31.96;34.58;100730.31;5038009;28;20036;-85
2022/06/30 11:36:26;;;;;;;10.05;2.30;;;;;;;31.55;34.13;100702.28;5053526;28;20047;-85